Time;durP1;ratioP1;P1;durP2;ratioP2;P2;SDS_P1;SDS_P2;PMS_P1;PMS_P2;Temp;Humidity;BMP_temperature;BMP_pressure;BME280_temperature;BME280_humidity;BME280_pressure;Samples;Min_cycle;Max_cycle;Signal;HPM_P1;HPM_P2
2021/09/18 00:01:33;;;;;;;28.10;25.93;;;12.60;99.90;;;;;;4994619;28;20455;-68
2021/09/18 00:04:00;;;;;;;27.10;25.20;;;12.60;99.90;;;;;;4994626;28;20861;-70
2021/09/18 00:06:27;;;;;;;26.37;24.60;;;12.60;99.90;;;;;;4994443;28;21007;-69
2021/09/18 00:08:53;;;;;;;24.90;23.00;;;12.60;99.90;;;;;;4994404;28;20459;-69
2021/09/18 00:11:20;;;;;;;25.40;23.47;;;12.60;99.90;;;;;;4994533;28;20447;-69
2021/09/18 00:13:48;;;;;;;25.33;23.53;;;12.60;99.90;;;;;;4994429;28;20447;-69
2021/09/18 00:16:15;;;;;;;26.67;24.57;;;12.60;99.90;;;;;;4994617;28;20455;-69
2021/09/18 00:18:42;;;;;;;26.90;25.20;;;12.60;99.90;;;;;;4994500;28;20454;-69
2021/09/18 00:21:08;;;;;;;26.57;24.70;;;12.50;99.90;;;;;;4994203;28;20474;-69
2021/09/18 00:23:35;;;;;;;24.90;23.17;;;12.50;99.90;;;;;;4993764;28;20494;-69
2021/09/18 00:26:02;;;;;;;25.63;23.73;;;12.50;99.90;;;;;;4994264;28;20454;-69
2021/09/18 00:28:28;;;;;;;24.93;23.30;;;12.50;99.90;;;;;;4994514;28;20447;-69
2021/09/18 00:30:57;;;;;;;25.40;23.70;;;12.50;99.90;;;;;;4994147;28;20449;-69
2021/09/18 00:33:23;;;;;;;25.43;23.57;;;12.50;99.90;;;;;;4993986;28;20443;-69
2021/09/18 00:35:50;;;;;;;26.70;24.70;;;12.50;99.90;;;;;;4993880;28;20459;-68
2021/09/18 00:38:17;;;;;;;25.90;24.00;;;12.50;99.90;;;;;;4993798;28;20454;-70
2021/09/18 00:40:43;;;;;;;27.23;25.17;;;12.50;99.90;;;;;;4994082;28;20479;-69
2021/09/18 00:43:11;;;;;;;24.93;23.37;;;12.50;99.90;;;;;;4992538;28;20495;-70
2021/09/18 00:45:38;;;;;;;26.07;24.07;;;12.50;99.90;;;;;;4993671;28;20554;-69
2021/09/18 00:48:06;;;;;;;25.23;23.43;;;12.50;99.90;;;;;;4993566;28;20960;-69
2021/09/18 00:50:33;;;;;;;25.30;23.50;;;12.50;99.90;;;;;;4993602;28;20455;-70
2021/09/18 00:53:00;;;;;;;25.90;23.90;;;12.50;99.90;;;;;;4993612;28;20458;-69
2021/09/18 00:55:27;;;;;;;25.10;23.47;;;12.50;99.90;;;;;;4993774;28;20447;-70
2021/09/18 00:57:54;;;;;;;26.03;24.17;;;12.50;99.90;;;;;;4993566;28;20450;-70
2021/09/18 01:00:21;;;;;;;25.70;24.00;;;12.40;99.90;;;;;;4993710;28;20454;-71
2021/09/18 01:02:48;;;;;;;28.17;25.03;;;12.50;99.90;;;;;;4993308;28;20490;-71
2021/09/18 01:05:16;;;;;;;26.80;24.93;;;12.50;99.90;;;;;;4993427;28;20461;-70
2021/09/18 01:07:43;;;;;;;26.20;24.50;;;12.50;99.90;;;;;;4993499;28;20543;-70
2021/09/18 01:10:11;;;;;;;25.47;23.67;;;12.50;99.90;;;;;;4993493;28;20880;-70
2021/09/18 01:13:03;;;;;;;25.63;23.83;;;12.40;99.90;;;;;;4992971;28;20447;-70
2021/09/18 01:15:31;;;;;;;24.90;23.23;;;12.40;99.90;;;;;;4993136;28;20430;-71
2021/09/18 01:17:58;;;;;;;27.27;25.20;;;12.40;99.90;;;;;;4993109;28;20458;-70
2021/09/18 01:20:27;;;;;;;26.47;24.60;;;12.40;99.90;;;;;;4992881;28;20525;-71
2021/09/18 01:22:56;;;;;;;26.30;24.20;;;12.30;99.90;;;;;;4992740;28;20499;-71
2021/09/18 01:25:24;;;;;;;26.17;24.17;;;12.30;99.90;;;;;;4992887;28;20990;-71
2021/09/18 01:27:51;;;;;;;25.10;23.50;;;12.30;99.90;;;;;;4992852;28;20465;-71
2021/09/18 01:30:19;;;;;;;25.57;23.67;;;12.20;99.90;;;;;;4992754;28;20447;-71
2021/09/18 01:32:47;;;;;;;25.47;23.67;;;12.20;99.90;;;;;;4992851;28;21237;-70
2021/09/18 01:35:14;;;;;;;26.40;24.50;;;12.10;99.90;;;;;;4993093;28;20479;-70
2021/09/18 01:37:41;;;;;;;26.80;24.90;;;12.10;99.90;;;;;;4992650;28;20937;-70
2021/09/18 01:40:09;;;;;;;26.27;24.50;;;12.10;99.90;;;;;;4992442;28;20455;-70
2021/09/18 01:42:43;;;;;;;26.43;24.50;;;12.10;99.90;;;;;;4992627;28;20493;-71
2021/09/18 01:45:11;;;;;;;25.63;23.93;;;12.10;99.90;;;;;;4992576;28;20544;-70
2021/09/18 01:47:45;;;;;;;27.40;24.60;;;12.10;99.90;;;;;;4992398;28;20462;-70
2021/09/18 01:50:26;;;;;;;27.40;25.50;;;12.10;99.90;;;;;;4992607;28;20461;-71
2021/09/18 01:52:54;;;;;;;27.70;25.80;;;12.00;99.90;;;;;;4992258;28;20990;-71
2021/09/18 01:55:21;;;;;;;26.67;24.67;;;12.00;99.90;;;;;;4992293;28;20957;-71
2021/09/18 01:57:51;;;;;;;27.40;25.37;;;11.90;99.90;;;;;;4992621;28;20466;-69
2021/09/18 02:00:19;;;;;;;28.07;26.10;;;11.90;99.90;;;;;;4992158;28;20458;-67
2021/09/18 02:02:46;;;;;;;27.60;25.40;;;11.90;99.90;;;;;;4992387;28;20495;-71
2021/09/18 02:05:15;;;;;;;28.10;26.07;;;12.00;99.90;;;;;;4992411;28;20462;-71
2021/09/18 02:07:42;;;;;;;27.67;25.50;;;12.00;99.90;;;;;;4992388;28;20458;-71
2021/09/18 02:10:12;;;;;;;28.67;26.57;;;12.00;99.90;;;;;;4992172;28;20455;-71
2021/09/18 02:12:39;;;;;;;28.07;25.87;;;12.00;99.90;;;;;;4992292;28;20453;-71
2021/09/18 02:15:09;;;;;;;27.50;25.50;;;12.00;99.90;;;;;;4992036;28;21244;-70
2021/09/18 02:17:36;;;;;;;27.83;25.83;;;12.00;99.90;;;;;;4992271;28;20447;-70
2021/09/18 02:20:04;;;;;;;30.53;28.17;;;12.00;99.90;;;;;;4991992;28;20486;-70
2021/09/18 02:22:31;;;;;;;28.57;26.43;;;12.00;99.90;;;;;;4991780;28;20485;-70
2021/09/18 02:24:57;;;;;;;27.83;25.93;;;12.00;99.90;;;;;;4992167;28;20806;-71
2021/09/18 02:27:24;;;;;;;26.53;24.43;;;12.00;99.90;;;;;;4992198;28;20789;-72
2021/09/18 02:29:51;;;;;;;30.07;27.47;;;12.00;99.90;;;;;;4991835;28;20461;-71
2021/09/18 02:32:19;;;;;;;30.13;27.63;;;12.00;99.90;;;;;;4991840;28;20450;-71
2021/09/18 02:34:46;;;;;;;27.90;25.70;;;12.00;99.90;;;;;;4992172;28;20800;-70
2021/09/18 02:37:13;;;;;;;29.20;27.00;;;12.00;99.90;;;;;;4991931;28;20461;-70
2021/09/18 02:39:40;;;;;;;27.60;25.70;;;12.10;99.90;;;;;;4991723;28;20459;-70
2021/09/18 02:42:07;;;;;;;27.37;25.17;;;12.10;99.90;;;;;;4991700;28;20458;-70
2021/09/18 02:44:33;;;;;;;26.73;24.83;;;12.00;99.90;;;;;;4991696;28;20482;-70
2021/09/18 02:47:00;;;;;;;26.47;24.50;;;12.00;99.90;;;;;;4991940;28;20450;-70
2021/09/18 02:49:28;;;;;;;29.00;26.43;;;12.00;99.90;;;;;;4991535;28;20458;-71
2021/09/18 02:51:55;;;;;;;26.73;24.73;;;12.00;99.90;;;;;;4991912;28;20457;-71
2021/09/18 02:54:21;;;;;;;27.40;25.37;;;11.90;99.90;;;;;;4991650;28;20458;-71
2021/09/18 02:56:48;;;;;;;26.07;24.37;;;12.00;99.90;;;;;;4991727;28;20446;-69
2021/09/18 02:59:15;;;;;;;26.40;24.00;;;11.90;99.90;;;;;;4991814;28;20462;-69
2021/09/18 03:01:41;;;;;;;27.67;25.17;;;11.90;99.90;;;;;;4991164;28;20457;-69
2021/09/18 03:04:08;;;;;;;26.47;24.57;;;11.80;99.90;;;;;;4991549;28;20490;-69
2021/09/18 03:06:36;;;;;;;28.00;25.83;;;11.70;99.90;;;;;;4994166;28;20454;-70
2021/09/18 03:09:03;;;;;;;26.50;24.80;;;11.80;99.90;;;;;;4995596;28;20446;-68
2021/09/18 03:11:29;;;;;;;27.00;25.00;;;11.70;99.90;;;;;;4995480;28;20904;-70
2021/09/18 03:13:56;;;;;;;27.80;25.63;;;11.80;99.90;;;;;;4995415;28;20439;-69
2021/09/18 03:16:23;;;;;;;25.50;23.87;;;11.70;99.90;;;;;;4995475;28;20458;-69
2021/09/18 06:25:59;;;;;;;21.00;19.80;;;13.40;99.90;;;;;;5151845;23;20498;-70
2021/09/18 06:28:26;;;;;;;20.43;19.00;;;13.70;99.90;;;;;;4991300;28;20458;-72
2021/09/18 06:30:53;;;;;;;21.57;20.07;;;13.90;99.90;;;;;;4991460;28;20451;-72
2021/09/18 06:33:19;;;;;;;19.03;18.00;;;14.00;99.90;;;;;;4991392;28;20446;-72
2021/09/18 06:35:46;;;;;;;19.33;18.17;;;14.20;99.90;;;;;;4991183;28;20451;-73
2021/09/18 06:38:14;;;;;;;19.47;18.27;;;14.40;99.90;;;;;;4991271;28;20458;-70
2021/09/18 06:40:41;;;;;;;20.80;19.30;;;14.50;99.90;;;;;;4991009;28;20461;-73
2021/09/18 06:43:09;;;;;;;19.90;18.70;;;14.60;99.90;;;;;;4991094;28;20450;-73
2021/09/18 06:45:36;;;;;;;21.70;20.30;;;14.80;99.90;;;;;;4991254;28;20526;-72
2021/09/18 06:48:03;;;;;;;19.80;18.50;;;15.00;99.90;;;;;;4991078;28;20450;-70
2021/09/18 06:50:29;;;;;;;20.30;18.93;;;15.20;99.90;;;;;;4991010;28;20451;-71
2021/09/18 06:52:56;;;;;;;19.80;18.40;;;15.40;99.90;;;;;;4991224;28;20813;-71
2021/09/18 06:55:23;;;;;;;19.70;18.60;;;15.40;99.90;;;;;;4991259;28;20446;-72
2021/09/18 06:57:50;;;;;;;19.00;17.93;;;15.50;99.90;;;;;;4991225;28;20817;-72
2021/09/18 07:00:18;;;;;;;18.73;17.63;;;15.70;99.90;;;;;;4990851;28;20450;-72
2021/09/18 07:02:45;;;;;;;20.50;19.10;;;15.80;99.90;;;;;;4990915;28;20454;-73
2021/09/18 07:05:12;;;;;;;18.80;17.80;;;16.00;99.90;;;;;;4990754;28;20549;-73
2021/09/18 07:07:39;;;;;;;18.20;17.07;;;16.30;99.90;;;;;;4990986;28;20458;-72
2021/09/18 07:10:07;;;;;;;18.40;17.20;;;16.50;99.90;;;;;;4982887;28;20813;-71
2021/09/18 07:12:34;;;;;;;18.50;17.40;;;16.90;99.90;;;;;;4978592;28;20466;-71
2021/09/18 07:15:00;;;;;;;19.20;18.10;;;17.20;99.90;;;;;;4971427;28;20669;-71
2021/09/18 07:17:29;;;;;;;19.80;18.60;;;17.40;99.90;;;;;;4971319;28;20819;-71
2021/09/18 07:19:57;;;;;;;20.20;18.90;;;17.40;99.90;;;;;;4971496;28;20555;-71
2021/09/18 07:22:24;;;;;;;18.57;17.47;;;17.60;99.90;;;;;;4971633;28;20452;-71
2021/09/18 07:24:51;;;;;;;19.27;18.20;;;17.50;99.90;;;;;;4971169;28;20496;-70
2021/09/18 07:27:18;;;;;;;19.23;17.60;;;17.70;99.90;;;;;;4971539;28;20448;-71
2021/09/18 07:29:45;;;;;;;18.73;17.70;;;17.70;99.90;;;;;;4971373;28;20483;-71
2021/09/18 07:32:12;;;;;;;19.57;18.17;;;18.10;99.90;;;;;;4971401;28;20845;-71
2021/09/18 07:34:40;;;;;;;18.60;17.40;;;18.50;99.90;;;;;;4971284;28;20456;-72
2021/09/18 07:37:07;;;;;;;18.57;17.57;;;18.80;99.90;;;;;;4971196;28;20464;-71
2021/09/18 07:39:34;;;;;;;18.33;17.10;;;19.00;99.90;;;;;;4971225;28;20456;-72
2021/09/18 07:42:01;;;;;;;19.30;17.93;;;19.20;99.90;;;;;;4971399;28;20888;-73
2021/09/18 07:44:27;;;;;;;19.20;18.03;;;19.20;99.90;;;;;;4971144;28;20487;-73
2021/09/18 07:46:54;;;;;;;19.00;18.00;;;19.10;99.90;;;;;;4969069;28;20964;-71
2021/09/18 07:49:21;;;;;;;18.30;17.30;;;19.50;99.90;;;;;;4971314;28;20462;-73
2021/09/18 07:51:49;;;;;;;19.00;17.90;;;20.20;99.90;;;;;;4971941;28;20452;-72
2021/09/18 07:54:15;;;;;;;19.30;18.10;;;20.20;99.90;;;;;;4974822;28;21102;-72
2021/09/18 07:56:42;;;;;;;18.20;17.17;;;19.80;99.90;;;;;;4974576;28;20617;-71
2021/09/18 07:59:10;;;;;;;18.77;17.50;;;20.00;99.90;;;;;;4974603;28;20458;-72
2021/09/18 08:01:37;;;;;;;18.40;17.40;;;20.50;99.90;;;;;;4974797;28;20455;-71
2021/09/18 08:04:04;;;;;;;17.80;16.80;;;20.90;99.90;;;;;;4974366;28;20514;-72
2021/09/18 08:06:31;;;;;;;19.33;18.00;;;21.20;99.90;;;;;;4974409;28;20913;-72
2021/09/18 08:08:59;;;;;;;19.00;17.80;;;20.90;99.90;;;;;;4974199;28;20463;-72
2021/09/18 08:11:26;;;;;;;18.60;17.50;;;20.60;99.90;;;;;;4974205;28;20484;-74
2021/09/18 08:13:55;;;;;;;19.83;18.73;;;20.10;99.90;;;;;;4974634;28;20459;-73
2021/09/18 08:16:23;;;;;;;19.60;18.50;;;20.60;99.90;;;;;;4974633;28;20836;-73
2021/09/18 08:18:50;;;;;;;20.50;19.20;;;21.00;99.90;;;;;;4974432;28;20443;-73
2021/09/18 08:21:16;;;;;;;20.67;19.47;;;20.90;99.90;;;;;;4974226;28;20459;-73
2021/09/18 08:23:45;;;;;;;19.80;18.53;;;21.00;99.90;;;;;;4973985;28;20486;-73
2021/09/18 08:26:13;;;;;;;18.70;17.60;;;21.40;99.90;;;;;;4973962;28;20488;-73
2021/09/18 08:28:40;;;;;;;19.17;18.17;;;21.50;99.70;;;;;;4974015;28;20451;-73
2021/09/18 08:31:07;;;;;;;19.23;18.13;;;21.80;99.60;;;;;;4974205;28;20945;-74
2021/09/18 08:33:34;;;;;;;20.73;19.40;;;22.40;98.70;;;;;;4974028;28;20447;-73
2021/09/18 08:36:01;;;;;;;18.13;17.23;;;23.10;97.40;;;;;;4973956;28;20451;-73
2021/09/18 08:38:28;;;;;;;18.73;17.73;;;23.40;96.70;;;;;;4973805;28;20452;-73
2021/09/18 08:40:55;;;;;;;19.30;18.30;;;23.40;96.60;;;;;;4974086;28;20459;-73
2021/09/18 08:43:23;;;;;;;19.50;18.40;;;23.30;96.30;;;;;;4974105;28;20459;-73
2021/09/18 08:45:50;;;;;;;19.00;18.00;;;23.30;96.10;;;;;;4973869;28;20491;-73
2021/09/18 08:48:17;;;;;;;20.03;18.87;;;23.60;96.20;;;;;;4973748;28;20478;-71
2021/09/18 08:50:44;;;;;;;18.70;17.77;;;24.10;95.20;;;;;;4971953;28;20759;-73
2021/09/18 08:53:11;;;;;;;18.93;18.03;;;24.30;94.50;;;;;;4973649;28;20452;-71
2021/09/18 08:55:38;;;;;;;18.50;17.50;;;24.80;94.00;;;;;;4973727;28;20961;-73
2021/09/18 08:58:05;;;;;;;18.83;17.93;;;24.80;93.90;;;;;;4973673;28;20447;-73
2021/09/18 09:00:47;;;;;;;18.90;17.90;;;24.80;93.20;;;;;;4973423;28;20461;-73
2021/09/18 09:03:14;;;;;;;18.73;17.80;;;25.30;92.60;;;;;;4972286;28;20459;-73
2021/09/18 09:05:44;;;;;;;18.77;17.77;;;25.30;91.40;;;;;;4973373;28;20495;-73
2021/09/18 09:08:12;;;;;;;17.13;16.13;;;25.40;91.90;;;;;;4973134;28;20458;-73
2021/09/18 09:10:42;;;;;;;17.40;16.43;;;25.60;90.60;;;;;;4973370;28;20925;-72
2021/09/18 09:13:14;;;;;;;17.20;16.40;;;25.70;90.80;;;;;;4973462;28;20455;-73
2021/09/18 09:15:43;;;;;;;17.13;16.13;;;25.60;90.80;;;;;;4973268;28;20817;-73
2021/09/18 09:18:22;;;;;;;17.80;17.00;;;25.70;90.90;;;;;;4973300;28;20491;-73
2021/09/18 09:20:51;;;;;;;17.20;16.20;;;25.20;91.00;;;;;;4973091;28;20466;-73
2021/09/18 09:23:19;;;;;;;16.53;15.73;;;25.50;91.30;;;;;;4972890;28;20495;-73
2021/09/18 09:25:49;;;;;;;16.50;15.70;;;25.90;90.50;;;;;;4972716;28;20909;-73
2021/09/18 09:28:29;;;;;;;17.27;16.27;;;27.00;88.60;;;;;;4972827;28;20460;-70
2021/09/18 09:31:01;;;;;;;17.00;16.10;;;27.00;86.30;;;;;;4973056;28;20797;-74
2021/09/18 09:33:29;;;;;;;16.27;15.50;;;26.80;86.80;;;;;;4972901;28;20456;-73
2021/09/18 09:35:56;;;;;;;16.17;15.47;;;27.30;85.30;;;;;;4972821;28;20506;-71
2021/09/18 09:38:22;;;;;;;17.33;16.43;;;27.50;85.60;;;;;;4972754;28;20462;-71
2021/09/18 09:40:49;;;;;;;16.07;15.23;;;27.60;82.90;;;;;;4972694;28;20456;-73
2021/09/18 09:43:19;;;;;;;16.90;15.80;;;27.70;83.70;;;;;;4972575;28;20466;-71
2021/09/18 09:45:46;;;;;;;16.60;15.67;;;27.70;81.80;;;;;;4972489;28;20724;-73
2021/09/18 09:48:15;;;;;;;16.13;15.40;;;27.70;81.70;;;;;;4972574;28;20447;-73
2021/09/18 09:50:45;;;;;;;16.83;15.87;;;28.10;80.30;;;;;;4972283;28;20905;-74
2021/09/18 09:53:27;;;;;;;16.77;15.83;;;28.60;80.20;;;;;;4972242;28;20474;-73
2021/09/18 09:55:53;;;;;;;16.63;15.93;;;29.20;77.90;;;;;;4983803;28;20738;-74
2021/09/18 09:58:20;;;;;;;16.40;15.73;;;29.60;76.00;;;;;;4991837;28;20458;-71
2021/09/18 10:00:50;;;;;;;16.50;15.70;;;29.40;74.50;;;;;;4979529;28;20466;-71
2021/09/18 10:03:20;;;;;;;15.30;14.63;;;29.60;72.90;;;;;;4991809;28;20458;-72
2021/09/18 10:05:49;;;;;;;15.37;14.77;;;29.60;73.30;;;;;;4991827;28;20506;-75
2021/09/18 10:08:22;;;;;;;15.87;15.17;;;29.80;71.30;;;;;;4989963;28;20690;-74
2021/09/18 10:10:49;;;;;;;15.27;14.40;;;29.90;69.80;;;;;;4991930;28;20490;-73
2021/09/18 10:13:18;;;;;;;15.00;14.30;;;29.70;70.70;;;;;;4991544;28;20447;-74
2021/09/18 10:15:46;;;;;;;14.63;13.90;;;30.60;68.70;;;;;;4991407;28;20454;-74
2021/09/18 10:18:15;;;;;;;16.07;15.13;;;32.20;64.30;;;;;;4991399;28;20486;-75
2021/09/18 10:23:28;;;;;;;15.70;15.00;;;31.90;62.30;;;;;;4991380;28;20808;-74
2021/09/18 10:25:56;;;;;;;16.30;15.50;;;32.60;60.50;;;;;;4991290;28;20490;-73
2021/09/18 10:28:25;;;;;;;16.23;15.53;;;33.60;58.90;;;;;;4991531;28;20458;-71
2021/09/18 10:30:54;;;;;;;15.93;15.33;;;33.80;57.10;;;;;;4991601;28;20443;-72
2021/09/18 10:33:34;;;;;;;15.50;14.90;;;32.80;58.70;;;;;;4991460;28;20473;-72
2021/09/18 10:36:03;;;;;;;16.00;15.30;;;32.60;59.00;;;;;;4991281;28;20446;-72
2021/09/18 10:38:33;;;;;;;15.73;15.10;;;32.90;58.80;;;;;;4991074;28;20796;-72
2021/09/18 10:41:12;;;;;;;15.93;15.33;;;33.10;58.00;;;;;;4991395;28;20454;-73
2021/09/18 10:43:41;;;;;;;16.17;15.47;;;33.60;57.20;;;;;;4991636;28;20458;-73
2021/09/18 10:46:10;;;;;;;15.47;14.87;;;34.60;55.60;;;;;;4991446;28;20490;-74
2021/09/18 10:48:49;;;;;;;16.60;15.90;;;35.50;53.50;;;;;;4991395;28;20473;-74
2021/09/18 10:51:37;;;;;;;16.37;15.67;;;36.10;52.10;;;;;;4991206;28;20450;-74
2021/09/18 10:54:14;;;;;;;16.30;15.60;;;35.20;52.40;;;;;;4991087;28;20447;-74
2021/09/18 10:57:05;;;;;;;16.57;15.97;;;35.20;52.70;;;;;;4991187;28;20453;-73
2021/09/18 10:59:50;;;;;;;16.37;15.77;;;35.20;52.10;;;;;;4991118;28;20454;-73
2021/09/18 11:02:57;;;;;;;16.53;15.70;;;35.50;51.50;;;;;;4990987;28;20987;-74
2021/09/18 11:05:47;;;;;;;15.53;14.90;;;35.60;50.70;;;;;;4991554;28;20457;-74
2021/09/18 11:08:35;;;;;;;15.67;15.07;;;34.60;51.40;;;;;;4990865;28;20447;-74
2021/09/18 11:11:06;;;;;;;14.93;14.33;;;34.30;51.90;;;;;;4991021;28;20458;-74
2021/09/18 11:13:36;;;;;;;16.53;15.77;;;34.40;51.90;;;;;;4990891;28;20455;-74
2021/09/18 11:16:07;;;;;;;15.70;15.10;;;33.50;52.70;;;;;;4990972;28;20513;-74
2021/09/18 11:18:36;;;;;;;15.50;14.90;;;33.50;53.10;;;;;;4990948;28;20450;-74
2021/09/18 11:21:12;;;;;;;14.33;13.83;;;33.80;52.50;;;;;;4991081;28;20477;-74
2021/09/18 11:23:41;;;;;;;14.53;14.03;;;33.60;52.30;;;;;;4990944;28;20491;-74
2021/09/18 11:26:38;;;;;;;16.00;15.33;;;34.30;52.00;;;;;;4991115;28;20471;-74
2021/09/18 11:29:27;;;;;;;14.67;14.17;;;35.10;50.80;;;;;;4994723;28;20505;-74
2021/09/18 11:32:05;;;;;;;13.93;13.23;;;35.50;48.00;;;;;;4994920;28;20898;-74
2021/09/18 11:34:34;;;;;;;14.07;13.57;;;33.50;46.80;;;;;;4994580;28;20454;-73
2021/09/18 11:37:04;;;;;;;14.53;13.87;;;31.90;48.90;;;;;;4994485;28;20983;-73
2021/09/18 11:39:47;;;;;;;15.17;14.37;;;31.20;50.10;;;;;;4994332;28;20446;-73
2021/09/18 11:42:32;;;;;;;13.77;13.27;;;30.80;51.10;;;;;;4994363;28;20457;-73
2021/09/18 11:45:03;;;;;;;13.83;13.33;;;29.50;53.90;;;;;;4994129;28;20546;-73
2021/09/18 11:47:33;;;;;;;14.53;13.93;;;29.70;54.80;;;;;;4993934;28;20442;-73
2021/09/18 11:50:01;;;;;;;14.00;13.40;;;30.30;53.40;;;;;;4993817;28;20446;-74
2021/09/18 11:52:36;;;;;;;14.17;13.40;;;29.50;53.40;;;;;;4993840;28;20794;-73
2021/09/18 11:55:06;;;;;;;14.60;14.00;;;29.40;53.50;;;;;;4993422;28;20827;-73
2021/09/18 11:57:34;;;;;;;14.30;13.70;;;29.80;52.20;;;;;;4993620;28;20453;-73
2021/09/18 12:00:15;;;;;;;14.20;13.70;;;29.40;52.60;;;;;;4993834;28;20457;-73
2021/09/18 12:02:42;;;;;;;13.90;13.40;;;29.80;54.50;;;;;;4994010;28;20458;-73
2021/09/18 12:05:18;;;;;;;15.13;14.53;;;29.70;55.10;;;;;;4993823;28;20546;-73
2021/09/18 12:07:47;;;;;;;16.10;15.40;;;30.10;54.50;;;;;;4993850;28;20881;-73
2021/09/18 12:10:15;;;;;;;15.57;14.97;;;30.40;54.30;;;;;;4993375;28;20482;-73
2021/09/18 12:12:45;;;;;;;15.17;14.57;;;30.40;54.00;;;;;;4993394;28;20484;-73
2021/09/18 12:15:12;;;;;;;15.10;14.50;;;31.80;53.00;;;;;;4993211;28;21032;-73
2021/09/18 12:17:41;;;;;;;15.17;14.67;;;31.80;51.60;;;;;;4993409;28;20454;-73
2021/09/18 12:20:10;;;;;;;14.90;14.40;;;31.80;51.40;;;;;;4993540;28;20965;-73
2021/09/18 12:22:37;;;;;;;16.37;15.37;;;31.70;50.20;;;;;;4993286;28;20458;-74
2021/09/18 12:25:05;;;;;;;16.50;15.90;;;32.60;49.70;;;;;;4993106;28;21011;-73
2021/09/18 12:27:34;;;;;;;15.60;15.00;;;32.30;49.70;;;;;;4993144;28;20454;-74
2021/09/18 12:30:08;;;;;;;16.17;15.57;;;31.80;50.80;;;;;;4993095;28;20447;-73
2021/09/18 12:32:35;;;;;;;15.20;14.70;;;32.30;50.00;;;;;;4993385;28;20450;-73
2021/09/18 12:35:07;;;;;;;16.13;15.53;;;32.40;50.70;;;;;;4992888;28;20455;-72
2021/09/18 12:37:36;;;;;;;17.20;16.50;;;32.30;50.60;;;;;;4992782;28;20816;-74
2021/09/18 12:40:11;;;;;;;15.30;14.70;;;32.50;50.30;;;;;;4993006;28;20473;-73
2021/09/18 12:42:38;;;;;;;15.37;14.77;;;32.70;50.20;;;;;;4993120;28;20489;-73
2021/09/18 12:45:25;;;;;;;16.00;15.40;;;33.20;50.10;;;;;;4992761;28;20447;-73
2021/09/18 12:48:13;;;;;;;16.13;15.43;;;33.70;49.30;;;;;;4992857;28;20500;-74
2021/09/18 12:50:52;;;;;;;15.00;14.50;;;32.70;50.90;;;;;;4992751;28;20458;-73
2021/09/18 12:53:20;;;;;;;15.30;14.80;;;32.70;49.10;;;;;;4992433;28;20450;-73
2021/09/18 12:56:27;;;;;;;14.87;14.17;;;32.30;49.90;;;;;;4992408;28;20550;-73
2021/09/18 12:58:55;;;;;;;14.10;13.60;;;32.10;50.40;;;;;;4984410;28;20462;-73
2021/09/18 13:01:35;;;;;;;14.50;13.90;;;31.90;50.60;;;;;;4992783;28;20451;-73
2021/09/18 13:04:04;;;;;;;13.30;12.80;;;32.30;47.80;;;;;;4992516;28;20850;-73
2021/09/18 13:06:31;;;;;;;14.90;14.30;;;31.90;49.20;;;;;;4992473;28;20458;-74
2021/09/18 13:09:00;;;;;;;14.43;13.93;;;30.60;49.70;;;;;;4992372;28;20843;-74
2021/09/18 13:11:30;;;;;;;15.03;14.43;;;30.20;51.30;;;;;;4992516;28;20449;-74
2021/09/18 13:14:09;;;;;;;14.80;14.20;;;30.20;52.10;;;;;;4992195;28;20461;-74
2021/09/18 13:16:37;;;;;;;14.30;13.70;;;30.40;52.80;;;;;;4992277;28;20485;-75
2021/09/18 13:19:06;;;;;;;14.93;14.33;;;30.70;52.30;;;;;;4992134;28;20454;-75
2021/09/18 13:21:34;;;;;;;14.00;13.53;;;30.90;51.10;;;;;;4992258;28;20455;-75
2021/09/18 13:24:01;;;;;;;14.87;14.30;;;30.50;53.00;;;;;;4991703;28;20494;-75
2021/09/18 13:26:29;;;;;;;14.83;14.33;;;30.40;53.00;;;;;;4991875;28;20443;-75
2021/09/18 13:28:56;;;;;;;14.50;14.00;;;30.30;53.40;;;;;;4992141;28;20462;-74
2021/09/18 13:31:23;;;;;;;15.13;14.53;;;30.90;53.10;;;;;;4992104;28;20447;-74
2021/09/18 13:33:51;;;;;;;15.87;14.60;;;31.20;52.00;;;;;;4991777;28;20459;-74
2021/09/18 13:36:17;;;;;;;15.33;14.73;;;31.80;51.50;;;;;;4991707;28;20491;-74
2021/09/18 13:38:44;;;;;;;16.10;15.50;;;32.50;50.10;;;;;;4991706;28;20458;-74
2021/09/18 13:41:11;;;;;;;14.73;14.23;;;32.40;51.40;;;;;;4991803;28;20446;-74
2021/09/18 13:43:38;;;;;;;14.60;13.97;;;32.10;51.30;;;;;;4991974;28;20458;-74
2021/09/18 13:46:04;;;;;;;15.50;14.90;;;31.20;52.40;;;;;;4991444;28;20469;-74
2021/09/18 13:48:31;;;;;;;15.80;15.20;;;30.50;53.10;;;;;;4991543;28;20469;-74
2021/09/18 13:51:01;;;;;;;15.10;14.43;;;29.70;55.60;;;;;;4991031;28;20454;-74
2021/09/18 13:53:28;;;;;;;15.43;14.83;;;29.10;56.20;;;;;;4991543;28;20459;-74
2021/09/18 13:55:55;;;;;;;15.20;14.60;;;28.00;58.90;;;;;;4991466;28;20495;-74
2021/09/18 13:58:22;;;;;;;15.57;14.73;;;26.90;62.60;;;;;;4991824;28;20459;-73
2021/09/18 14:00:49;;;;;;;15.67;14.97;;;26.00;67.40;;;;;;4991251;28;20454;-73
2021/09/18 14:03:15;;;;;;;15.40;14.70;;;25.30;73.10;;;;;;4991238;28;20707;-73
2021/09/18 14:05:42;;;;;;;14.40;13.80;;;24.70;77.00;;;;;;4991024;28;20822;-73
2021/09/18 14:08:10;;;;;;;14.30;13.70;;;24.20;78.50;;;;;;4991154;28;20447;-73
2021/09/18 14:10:37;;;;;;;16.40;15.70;;;23.70;82.10;;;;;;4991390;28;20466;-73
2021/09/18 14:13:04;;;;;;;14.63;14.03;;;23.30;84.30;;;;;;4991296;28;20454;-74
2021/09/18 14:15:31;;;;;;;16.13;15.33;;;23.30;86.40;;;;;;4990749;28;20834;-74
2021/09/18 14:17:57;;;;;;;15.70;15.00;;;23.20;87.40;;;;;;4991236;28;20801;-74
2021/09/18 14:20:24;;;;;;;15.43;14.63;;;23.10;89.00;;;;;;4991483;28;20447;-74
2021/09/18 14:22:51;;;;;;;14.80;14.10;;;22.90;90.30;;;;;;4991133;28;20482;-74
2021/09/18 14:25:20;;;;;;;15.33;14.67;;;22.80;90.50;;;;;;4990805;28;20601;-73
2021/09/18 14:27:48;;;;;;;15.27;14.43;;;22.50;91.10;;;;;;4990969;28;20915;-73
2021/09/18 14:30:14;;;;;;;14.70;14.00;;;22.40;90.80;;;;;;4990788;28;20455;-73
2021/09/18 14:32:41;;;;;;;14.37;13.77;;;22.10;92.20;;;;;;4990969;28;20455;-73
2021/09/18 14:35:09;;;;;;;14.43;13.83;;;22.00;92.40;;;;;;4991071;28;20822;-73
2021/09/18 14:37:35;;;;;;;14.03;13.40;;;21.90;91.70;;;;;;4991028;28;21012;-72
2021/09/18 14:40:03;;;;;;;15.03;14.27;;;21.90;92.30;;;;;;4990756;28;20963;-72
2021/09/18 14:42:31;;;;;;;14.67;13.97;;;21.80;92.20;;;;;;4990807;28;20527;-73
2021/09/18 14:44:58;;;;;;;14.70;14.00;;;21.80;92.40;;;;;;4990733;28;20459;-73
2021/09/18 14:47:24;;;;;;;13.97;13.47;;;21.80;92.70;;;;;;4990942;28;20457;-73
2021/09/18 14:49:51;;;;;;;14.70;14.10;;;21.90;91.00;;;;;;4991016;28;20454;-72
2021/09/18 14:52:18;;;;;;;14.00;13.40;;;22.00;91.10;;;;;;4990716;28;20909;-73
2021/09/18 14:54:44;;;;;;;13.43;12.83;;;22.10;91.50;;;;;;4990520;28;20462;-73
2021/09/18 14:57:11;;;;;;;12.93;12.43;;;22.20;91.00;;;;;;4990626;28;20494;-74
2021/09/18 14:59:39;;;;;;;13.00;12.50;;;22.30;86.20;;;;;;4990823;28;20455;-73
2021/09/18 15:02:06;;;;;;;13.33;12.83;;;22.50;83.30;;;;;;4992758;28;20817;-73
2021/09/18 15:04:33;;;;;;;13.80;13.20;;;22.50;84.60;;;;;;4994552;28;20454;-74
2021/09/18 15:07:00;;;;;;;15.00;14.30;;;22.50;83.30;;;;;;4994568;28;20925;-74
2021/09/18 15:09:26;;;;;;;14.83;13.93;;;22.50;86.70;;;;;;4994470;28;20450;-74
2021/09/18 15:11:53;;;;;;;14.27;13.57;;;22.50;88.40;;;;;;4994674;28;20459;-73
2021/09/18 15:14:20;;;;;;;15.20;14.40;;;22.40;88.30;;;;;;4994664;28;20474;-74
2021/09/18 15:16:48;;;;;;;14.27;13.67;;;22.40;89.20;;;;;;4994313;28;20490;-74
2021/09/18 15:19:15;;;;;;;13.93;13.33;;;22.40;85.10;;;;;;4994333;28;20457;-74
2021/09/18 15:21:41;;;;;;;13.47;12.87;;;22.40;85.20;;;;;;4994386;28;20453;-74
2021/09/18 15:24:08;;;;;;;14.20;13.40;;;22.40;86.00;;;;;;4994057;28;20475;-73
2021/09/18 15:26:35;;;;;;;14.37;13.67;;;22.40;88.50;;;;;;4994520;28;20438;-74
2021/09/18 15:29:02;;;;;;;13.63;13.03;;;22.30;87.90;;;;;;4994324;28;20461;-74
2021/09/18 15:31:28;;;;;;;14.00;13.30;;;22.30;87.90;;;;;;4994227;28;20731;-74
2021/09/18 15:33:57;;;;;;;13.60;12.70;;;22.30;89.00;;;;;;4994063;28;20455;-74
2021/09/18 15:36:23;;;;;;;13.50;12.90;;;22.30;90.10;;;;;;4994041;28;20827;-73
2021/09/18 15:38:52;;;;;;;13.37;12.80;;;22.30;90.30;;;;;;4993997;28;20446;-73
2021/09/18 15:41:19;;;;;;;14.43;13.77;;;22.20;90.40;;;;;;4994307;28;20455;-73
2021/09/18 15:43:46;;;;;;;13.93;13.33;;;22.20;90.20;;;;;;4993904;28;20454;-74
2021/09/18 15:46:14;;;;;;;14.83;14.13;;;22.20;90.60;;;;;;4993852;28;20443;-74
2021/09/18 15:48:42;;;;;;;14.90;14.20;;;22.10;90.90;;;;;;4993876;28;20462;-74